sensor_id;sensor_type;location;lat;lon;timestamp;P1;durP1;ratioP1;P2;durP2;ratioP2
59504;SDS011;45321;53.200;5.814;2022-11-15T00:00:55;27.23;;;21.25;;
59504;SDS011;45321;53.200;5.814;2022-11-15T00:03:27;29.85;;;21.63;;
59504;SDS011;45321;53.200;5.814;2022-11-15T00:05:53;29.48;;;21.35;;
59504;SDS011;45321;53.200;5.814;2022-11-15T00:08:18;26.23;;;20.40;;
59504;SDS011;45321;53.200;5.814;2022-11-15T00:10:54;27.90;;;21.23;;
59504;SDS011;45321;53.200;5.814;2022-11-15T00:13:21;26.58;;;19.83;;
59504;SDS011;45321;53.200;5.814;2022-11-15T00:15:46;23.40;;;19.13;;
59504;SDS011;45321;53.200;5.814;2022-11-15T00:18:12;26.50;;;20.25;;
59504;SDS011;45321;53.200;5.814;2022-11-15T00:20:39;29.00;;;21.05;;
59504;SDS011;45321;53.200;5.814;2022-11-15T00:23:05;28.17;;;20.17;;
59504;SDS011;45321;53.200;5.814;2022-11-15T00:25:31;26.42;;;21.40;;
59504;SDS011;45321;53.200;5.814;2022-11-15T00:27:58;26.08;;;20.05;;
59504;SDS011;45321;53.200;5.814;2022-11-15T00:30:24;26.20;;;19.90;;
59504;SDS011;45321;53.200;5.814;2022-11-15T00:32:53;26.67;;;19.33;;
59504;SDS011;45321;53.200;5.814;2022-11-15T00:35:19;28.30;;;20.52;;
59504;SDS011;45321;53.200;5.814;2022-11-15T00:37:45;27.60;;;20.23;;
59504;SDS011;45321;53.200;5.814;2022-11-15T00:40:12;29.10;;;20.23;;
59504;SDS011;45321;53.200;5.814;2022-11-15T00:42:39;25.10;;;19.65;;
59504;SDS011;45321;53.200;5.814;2022-11-15T00:45:05;25.92;;;19.85;;
59504;SDS011;45321;53.200;5.814;2022-11-15T00:47:31;31.70;;;20.40;;
59504;SDS011;45321;53.200;5.814;2022-11-15T00:49:57;30.13;;;21.85;;
59504;SDS011;45321;53.200;5.814;2022-11-15T00:52:23;26.92;;;21.55;;
59504;SDS011;45321;53.200;5.814;2022-11-15T00:54:49;27.27;;;21.20;;
59504;SDS011;45321;53.200;5.814;2022-11-15T00:57:15;28.60;;;21.10;;
59504;SDS011;45321;53.200;5.814;2022-11-15T00:59:40;29.38;;;20.88;;
59504;SDS011;45321;53.200;5.814;2022-11-15T01:02:06;28.23;;;21.13;;
59504;SDS011;45321;53.200;5.814;2022-11-15T01:04:32;28.45;;;21.35;;
59504;SDS011;45321;53.200;5.814;2022-11-15T01:06:57;30.58;;;21.90;;
59504;SDS011;45321;53.200;5.814;2022-11-15T01:09:23;28.00;;;21.20;;
59504;SDS011;45321;53.200;5.814;2022-11-15T01:11:49;26.65;;;20.92;;
59504;SDS011;45321;53.200;5.814;2022-11-15T01:14:14;26.73;;;20.63;;
59504;SDS011;45321;53.200;5.814;2022-11-15T01:16:40;28.10;;;21.15;;
59504;SDS011;45321;53.200;5.814;2022-11-15T01:19:06;29.05;;;20.80;;
59504;SDS011;45321;53.200;5.814;2022-11-15T01:21:31;26.05;;;20.25;;
59504;SDS011;45321;53.200;5.814;2022-11-15T01:23:57;28.90;;;21.70;;
59504;SDS011;45321;53.200;5.814;2022-11-15T01:26:23;25.00;;;19.63;;
59504;SDS011;45321;53.200;5.814;2022-11-15T01:28:50;27.67;;;20.60;;
59504;SDS011;45321;53.200;5.814;2022-11-15T01:31:17;27.75;;;21.63;;
59504;SDS011;45321;53.200;5.814;2022-11-15T01:33:44;29.83;;;22.08;;
59504;SDS011;45321;53.200;5.814;2022-11-15T01:36:12;31.50;;;24.20;;
59504;SDS011;45321;53.200;5.814;2022-11-15T01:38:41;35.10;;;22.55;;
59504;SDS011;45321;53.200;5.814;2022-11-15T01:41:12;32.92;;;24.27;;
59504;SDS011;45321;53.200;5.814;2022-11-15T01:43:40;29.83;;;22.88;;
59504;SDS011;45321;53.200;5.814;2022-11-15T01:46:15;29.40;;;23.13;;
59504;SDS011;45321;53.200;5.814;2022-11-15T01:48:45;35.58;;;24.70;;
59504;SDS011;45321;53.200;5.814;2022-11-15T01:51:11;32.55;;;23.95;;
59504;SDS011;45321;53.200;5.814;2022-11-15T01:53:41;37.03;;;25.05;;
59504;SDS011;45321;53.200;5.814;2022-11-15T01:56:13;33.85;;;25.13;;
59504;SDS011;45321;53.200;5.814;2022-11-15T01:58:45;37.05;;;25.38;;
59504;SDS011;45321;53.200;5.814;2022-11-15T02:01:12;38.50;;;26.83;;
59504;SDS011;45321;53.200;5.814;2022-11-15T02:06:26;40.72;;;27.05;;
59504;SDS011;45321;53.200;5.814;2022-11-15T02:08:51;37.50;;;26.75;;
59504;SDS011;45321;53.200;5.814;2022-11-15T02:11:18;37.15;;;27.38;;
59504;SDS011;45321;53.200;5.814;2022-11-15T02:13:46;37.63;;;25.83;;
59504;SDS011;45321;53.200;5.814;2022-11-15T02:19:05;36.17;;;24.05;;
59504;SDS011;45321;53.200;5.814;2022-11-15T02:24:59;35.53;;;24.02;;
59504;SDS011;45321;53.200;5.814;2022-11-15T02:27:38;36.42;;;24.75;;
59504;SDS011;45321;53.200;5.814;2022-11-15T02:32:57;36.13;;;25.13;;
59504;SDS011;45321;53.200;5.814;2022-11-15T02:35:52;35.63;;;24.67;;
59504;SDS011;45321;53.200;5.814;2022-11-15T02:41:03;39.25;;;25.70;;
59504;SDS011;45321;53.200;5.814;2022-11-15T02:43:51;37.65;;;25.45;;
59504;SDS011;45321;53.200;5.814;2022-11-15T02:49:13;41.25;;;25.25;;
59504;SDS011;45321;53.200;5.814;2022-11-15T02:51:40;37.17;;;25.25;;
59504;SDS011;45321;53.200;5.814;2022-11-15T02:54:15;36.80;;;25.42;;
59504;SDS011;45321;53.200;5.814;2022-11-15T02:56:47;39.05;;;26.33;;
59504;SDS011;45321;53.200;5.814;2022-11-15T03:07:24;37.45;;;24.90;;
59504;SDS011;45321;53.200;5.814;2022-11-15T03:12:41;41.58;;;27.08;;
59504;SDS011;45321;53.200;5.814;2022-11-15T03:15:18;42.35;;;25.48;;
59504;SDS011;45321;53.200;5.814;2022-11-15T03:17:52;44.97;;;28.05;;
59504;SDS011;45321;53.200;5.814;2022-11-15T03:20:43;46.55;;;26.27;;
59504;SDS011;45321;53.200;5.814;2022-11-15T03:23:10;50.05;;;27.77;;
59504;SDS011;45321;53.200;5.814;2022-11-15T03:25:38;49.60;;;28.85;;
59504;SDS011;45321;53.200;5.814;2022-11-15T03:28:08;55.50;;;29.73;;
59504;SDS011;45321;53.200;5.814;2022-11-15T03:30:36;58.33;;;30.88;;
59504;SDS011;45321;53.200;5.814;2022-11-15T03:33:03;51.53;;;30.27;;
59504;SDS011;45321;53.200;5.814;2022-11-15T03:35:32;61.30;;;31.77;;
59504;SDS011;45321;53.200;5.814;2022-11-15T03:40:51;57.42;;;31.27;;
59504;SDS011;45321;53.200;5.814;2022-11-15T03:43:35;65.75;;;32.20;;
59504;SDS011;45321;53.200;5.814;2022-11-15T03:46:08;66.00;;;32.03;;
59504;SDS011;45321;53.200;5.814;2022-11-15T03:48:43;68.63;;;33.72;;
59504;SDS011;45321;53.200;5.814;2022-11-15T03:51:19;63.80;;;31.38;;
59504;SDS011;45321;53.200;5.814;2022-11-15T03:53:46;72.72;;;32.90;;
59504;SDS011;45321;53.200;5.814;2022-11-15T03:56:12;66.70;;;31.27;;
59504;SDS011;45321;53.200;5.814;2022-11-15T03:58:37;62.95;;;32.22;;
59504;SDS011;45321;53.200;5.814;2022-11-15T04:01:03;69.22;;;33.90;;
59504;SDS011;45321;53.200;5.814;2022-11-15T04:03:29;61.53;;;32.47;;
59504;SDS011;45321;53.200;5.814;2022-11-15T04:05:54;73.30;;;32.47;;
59504;SDS011;45321;53.200;5.814;2022-11-15T04:08:20;67.78;;;32.67;;
59504;SDS011;45321;53.200;5.814;2022-11-15T04:10:48;73.38;;;33.20;;
59504;SDS011;45321;53.200;5.814;2022-11-15T04:13:14;69.25;;;33.17;;
59504;SDS011;45321;53.200;5.814;2022-11-15T04:15:40;74.28;;;34.63;;
59504;SDS011;45321;53.200;5.814;2022-11-15T04:18:05;70.63;;;33.80;;
59504;SDS011;45321;53.200;5.814;2022-11-15T04:20:31;64.15;;;30.98;;
59504;SDS011;45321;53.200;5.814;2022-11-15T04:23:17;69.05;;;33.22;;
59504;SDS011;45321;53.200;5.814;2022-11-15T04:26:12;70.00;;;32.72;;
59504;SDS011;45321;53.200;5.814;2022-11-15T04:28:43;66.18;;;31.05;;
59504;SDS011;45321;53.200;5.814;2022-11-15T04:31:27;65.22;;;30.55;;
59504;SDS011;45321;53.200;5.814;2022-11-15T04:33:54;61.72;;;30.95;;
59504;SDS011;45321;53.200;5.814;2022-11-15T04:36:21;63.20;;;29.55;;
59504;SDS011;45321;53.200;5.814;2022-11-15T04:39:06;62.07;;;30.60;;
59504;SDS011;45321;53.200;5.814;2022-11-15T04:41:31;60.88;;;29.42;;
59504;SDS011;45321;53.200;5.814;2022-11-15T04:43:57;61.92;;;30.02;;
59504;SDS011;45321;53.200;5.814;2022-11-15T04:46:23;61.53;;;31.70;;
59504;SDS011;45321;53.200;5.814;2022-11-15T04:48:49;57.30;;;28.83;;
59504;SDS011;45321;53.200;5.814;2022-11-15T04:51:15;51.42;;;27.55;;
59504;SDS011;45321;53.200;5.814;2022-11-15T04:53:41;57.28;;;29.75;;
59504;SDS011;45321;53.200;5.814;2022-11-15T04:56:07;54.95;;;28.05;;
59504;SDS011;45321;53.200;5.814;2022-11-15T04:58:33;53.05;;;27.27;;
59504;SDS011;45321;53.200;5.814;2022-11-15T05:01:06;53.20;;;27.77;;
59504;SDS011;45321;53.200;5.814;2022-11-15T05:03:37;56.00;;;27.55;;
59504;SDS011;45321;53.200;5.814;2022-11-15T05:06:21;65.82;;;30.10;;
59504;SDS011;45321;53.200;5.814;2022-11-15T05:08:47;57.05;;;28.45;;
59504;SDS011;45321;53.200;5.814;2022-11-15T05:11:13;59.63;;;28.80;;
59504;SDS011;45321;53.200;5.814;2022-11-15T05:13:39;59.72;;;29.80;;
59504;SDS011;45321;53.200;5.814;2022-11-15T05:16:04;63.42;;;29.92;;
59504;SDS011;45321;53.200;5.814;2022-11-15T05:18:30;60.83;;;29.20;;
59504;SDS011;45321;53.200;5.814;2022-11-15T05:21:02;67.00;;;31.55;;
59504;SDS011;45321;53.200;5.814;2022-11-15T05:23:31;68.22;;;30.45;;
59504;SDS011;45321;53.200;5.814;2022-11-15T05:26:00;64.50;;;29.90;;
59504;SDS011;45321;53.200;5.814;2022-11-15T05:28:27;73.55;;;31.63;;
59504;SDS011;45321;53.200;5.814;2022-11-15T05:30:57;72.05;;;31.70;;
59504;SDS011;45321;53.200;5.814;2022-11-15T05:33:33;80.18;;;33.30;;
59504;SDS011;45321;53.200;5.814;2022-11-15T05:36:45;73.65;;;33.05;;
59504;SDS011;45321;53.200;5.814;2022-11-15T05:38:49;79.55;;;34.97;;
59504;SDS011;45321;53.200;5.814;2022-11-15T05:41:16;79.28;;;35.63;;
59504;SDS011;45321;53.200;5.814;2022-11-15T05:43:45;87.35;;;35.80;;
59504;SDS011;45321;53.200;5.814;2022-11-15T05:46:12;82.03;;;36.17;;
59504;SDS011;45321;53.200;5.814;2022-11-15T05:48:39;85.43;;;36.17;;
59504;SDS011;45321;53.200;5.814;2022-11-15T05:51:08;86.25;;;36.97;;
59504;SDS011;45321;53.200;5.814;2022-11-15T05:53:34;79.35;;;35.65;;
59504;SDS011;45321;53.200;5.814;2022-11-15T05:56:02;83.80;;;36.92;;
59504;SDS011;45321;53.200;5.814;2022-11-15T05:58:28;85.03;;;35.33;;
59504;SDS011;45321;53.200;5.814;2022-11-15T06:01:06;84.38;;;37.00;;
59504;SDS011;45321;53.200;5.814;2022-11-15T06:03:32;86.90;;;37.92;;
59504;SDS011;45321;53.200;5.814;2022-11-15T06:05:57;82.03;;;37.20;;
59504;SDS011;45321;53.200;5.814;2022-11-15T06:08:23;85.53;;;38.97;;
59504;SDS011;45321;53.200;5.814;2022-11-15T06:10:49;85.35;;;37.00;;
59504;SDS011;45321;53.200;5.814;2022-11-15T06:13:15;75.78;;;36.45;;
59504;SDS011;45321;53.200;5.814;2022-11-15T06:15:40;76.95;;;36.60;;
59504;SDS011;45321;53.200;5.814;2022-11-15T06:18:09;81.35;;;38.33;;
59504;SDS011;45321;53.200;5.814;2022-11-15T06:20:35;73.53;;;35.53;;
59504;SDS011;45321;53.200;5.814;2022-11-15T06:23:01;78.43;;;36.28;;
59504;SDS011;45321;53.200;5.814;2022-11-15T06:25:28;72.70;;;35.35;;
59504;SDS011;45321;53.200;5.814;2022-11-15T06:27:56;77.75;;;36.30;;
59504;SDS011;45321;53.200;5.814;2022-11-15T06:30:22;78.95;;;38.38;;
59504;SDS011;45321;53.200;5.814;2022-11-15T06:32:49;77.47;;;37.22;;
59504;SDS011;45321;53.200;5.814;2022-11-15T06:35:15;73.03;;;35.95;;
59504;SDS011;45321;53.200;5.814;2022-11-15T06:37:41;82.25;;;39.30;;
59504;SDS011;45321;53.200;5.814;2022-11-15T06:40:08;77.63;;;39.58;;
59504;SDS011;45321;53.200;5.814;2022-11-15T06:42:34;80.90;;;38.13;;
59504;SDS011;45321;53.200;5.814;2022-11-15T06:45:00;78.47;;;39.17;;
59504;SDS011;45321;53.200;5.814;2022-11-15T06:47:26;80.65;;;40.03;;
59504;SDS011;45321;53.200;5.814;2022-11-15T06:49:52;79.50;;;37.55;;
59504;SDS011;45321;53.200;5.814;2022-11-15T06:52:18;84.78;;;38.35;;
59504;SDS011;45321;53.200;5.814;2022-11-15T06:54:44;86.18;;;40.55;;
59504;SDS011;45321;53.200;5.814;2022-11-15T06:57:10;74.90;;;36.63;;
59504;SDS011;45321;53.200;5.814;2022-11-15T06:59:36;80.53;;;38.90;;
59504;SDS011;45321;53.200;5.814;2022-11-15T07:02:02;87.63;;;41.97;;
59504;SDS011;45321;53.200;5.814;2022-11-15T07:04:28;89.55;;;40.05;;
59504;SDS011;45321;53.200;5.814;2022-11-15T07:06:54;86.47;;;39.90;;
59504;SDS011;45321;53.200;5.814;2022-11-15T07:09:20;102.00;;;44.03;;
59504;SDS011;45321;53.200;5.814;2022-11-15T07:11:46;90.78;;;42.53;;
59504;SDS011;45321;53.200;5.814;2022-11-15T07:14:11;97.75;;;44.35;;
59504;SDS011;45321;53.200;5.814;2022-11-15T07:16:37;97.05;;;43.22;;
59504;SDS011;45321;53.200;5.814;2022-11-15T07:19:03;100.38;;;43.53;;
59504;SDS011;45321;53.200;5.814;2022-11-15T07:21:29;94.95;;;43.25;;
59504;SDS011;45321;53.200;5.814;2022-11-15T07:23:54;99.78;;;43.50;;
59504;SDS011;45321;53.200;5.814;2022-11-15T07:26:20;97.15;;;43.22;;
59504;SDS011;45321;53.200;5.814;2022-11-15T07:28:46;94.90;;;43.38;;
59504;SDS011;45321;53.200;5.814;2022-11-15T07:31:11;92.60;;;42.25;;
59504;SDS011;45321;53.200;5.814;2022-11-15T07:33:37;92.40;;;42.80;;
59504;SDS011;45321;53.200;5.814;2022-11-15T07:36:04;91.72;;;43.20;;
59504;SDS011;45321;53.200;5.814;2022-11-15T07:38:31;90.50;;;44.00;;
59504;SDS011;45321;53.200;5.814;2022-11-15T07:40:58;91.43;;;40.58;;
59504;SDS011;45321;53.200;5.814;2022-11-15T07:43:25;82.15;;;41.72;;
59504;SDS011;45321;53.200;5.814;2022-11-15T07:45:52;88.03;;;42.47;;
59504;SDS011;45321;53.200;5.814;2022-11-15T07:48:18;82.70;;;41.60;;
59504;SDS011;45321;53.200;5.814;2022-11-15T07:50:44;76.38;;;39.10;;
59504;SDS011;45321;53.200;5.814;2022-11-15T07:53:10;80.78;;;42.83;;
59504;SDS011;45321;53.200;5.814;2022-11-15T07:55:36;83.68;;;47.20;;
59504;SDS011;45321;53.200;5.814;2022-11-15T07:58:06;69.45;;;39.45;;
59504;SDS011;45321;53.200;5.814;2022-11-15T08:00:36;81.55;;;41.22;;
59504;SDS011;45321;53.200;5.814;2022-11-15T08:03:06;69.80;;;38.88;;
59504;SDS011;45321;53.200;5.814;2022-11-15T08:05:33;68.55;;;39.22;;
59504;SDS011;45321;53.200;5.814;2022-11-15T08:08:00;73.45;;;40.58;;
59504;SDS011;45321;53.200;5.814;2022-11-15T08:10:27;69.88;;;38.28;;
59504;SDS011;45321;53.200;5.814;2022-11-15T08:13:00;60.88;;;36.00;;
59504;SDS011;45321;53.200;5.814;2022-11-15T08:15:27;65.53;;;37.85;;
59504;SDS011;45321;53.200;5.814;2022-11-15T08:17:54;65.18;;;35.50;;
59504;SDS011;45321;53.200;5.814;2022-11-15T08:20:21;61.13;;;36.20;;
59504;SDS011;45321;53.200;5.814;2022-11-15T08:22:46;61.03;;;36.25;;
59504;SDS011;45321;53.200;5.814;2022-11-15T08:25:12;63.47;;;36.30;;
59504;SDS011;45321;53.200;5.814;2022-11-15T08:27:38;61.83;;;36.35;;
59504;SDS011;45321;53.200;5.814;2022-11-15T08:30:04;52.70;;;35.47;;
59504;SDS011;45321;53.200;5.814;2022-11-15T08:32:30;52.50;;;34.90;;
59504;SDS011;45321;53.200;5.814;2022-11-15T08:34:56;50.10;;;33.78;;
59504;SDS011;45321;53.200;5.814;2022-11-15T08:37:22;54.47;;;35.58;;
59504;SDS011;45321;53.200;5.814;2022-11-15T08:39:47;54.10;;;33.97;;
59504;SDS011;45321;53.200;5.814;2022-11-15T08:42:13;51.97;;;32.60;;
59504;SDS011;45321;53.200;5.814;2022-11-15T08:44:41;50.80;;;33.15;;
59504;SDS011;45321;53.200;5.814;2022-11-15T08:47:07;48.10;;;32.15;;
59504;SDS011;45321;53.200;5.814;2022-11-15T08:49:32;41.53;;;30.73;;
59504;SDS011;45321;53.200;5.814;2022-11-15T08:51:58;46.67;;;31.08;;
59504;SDS011;45321;53.200;5.814;2022-11-15T08:54:24;44.45;;;32.33;;
59504;SDS011;45321;53.200;5.814;2022-11-15T08:56:49;48.08;;;32.25;;
59504;SDS011;45321;53.200;5.814;2022-11-15T08:59:15;40.92;;;31.20;;
59504;SDS011;45321;53.200;5.814;2022-11-15T09:01:41;42.35;;;31.13;;
59504;SDS011;45321;53.200;5.814;2022-11-15T09:04:07;44.60;;;30.10;;
59504;SDS011;45321;53.200;5.814;2022-11-15T09:06:32;44.42;;;30.92;;
59504;SDS011;45321;53.200;5.814;2022-11-15T09:08:59;44.28;;;29.30;;
59504;SDS011;45321;53.200;5.814;2022-11-15T09:11:29;44.17;;;29.80;;
59504;SDS011;45321;53.200;5.814;2022-11-15T09:13:55;40.40;;;28.58;;
59504;SDS011;45321;53.200;5.814;2022-11-15T09:16:20;40.22;;;29.15;;
59504;SDS011;45321;53.200;5.814;2022-11-15T09:18:46;40.80;;;29.95;;
59504;SDS011;45321;53.200;5.814;2022-11-15T09:21:15;38.22;;;27.85;;
59504;SDS011;45321;53.200;5.814;2022-11-15T09:23:40;41.95;;;29.92;;
59504;SDS011;45321;53.200;5.814;2022-11-15T09:26:06;40.00;;;27.77;;
59504;SDS011;45321;53.200;5.814;2022-11-15T09:28:35;37.65;;;27.92;;
59504;SDS011;45321;53.200;5.814;2022-11-15T09:31:02;38.30;;;28.35;;
59504;SDS011;45321;53.200;5.814;2022-11-15T09:33:29;36.20;;;27.65;;
59504;SDS011;45321;53.200;5.814;2022-11-15T09:35:59;38.20;;;26.90;;
59504;SDS011;45321;53.200;5.814;2022-11-15T09:38:28;34.17;;;25.98;;
59504;SDS011;45321;53.200;5.814;2022-11-15T09:49:21;33.17;;;24.75;;
59504;SDS011;45321;53.200;5.814;2022-11-15T09:51:48;38.03;;;26.70;;
59504;SDS011;45321;53.200;5.814;2022-11-15T09:57:04;33.63;;;25.88;;
59504;SDS011;45321;53.200;5.814;2022-11-15T10:05:01;36.45;;;25.48;;
59504;SDS011;45321;53.200;5.814;2022-11-15T10:07:35;34.28;;;26.15;;
59504;SDS011;45321;53.200;5.814;2022-11-15T10:10:23;34.20;;;26.13;;
59504;SDS011;45321;53.200;5.814;2022-11-15T10:12:51;36.05;;;25.33;;
59504;SDS011;45321;53.200;5.814;2022-11-15T10:15:18;32.58;;;25.35;;
59504;SDS011;45321;53.200;5.814;2022-11-15T10:20:34;37.00;;;24.73;;
59504;SDS011;45321;53.200;5.814;2022-11-15T10:23:10;33.58;;;26.02;;
59504;SDS011;45321;53.200;5.814;2022-11-15T10:25:38;38.15;;;25.42;;
59504;SDS011;45321;53.200;5.814;2022-11-15T10:28:15;33.90;;;25.10;;
59504;SDS011;45321;53.200;5.814;2022-11-15T10:30:55;35.15;;;24.75;;
59504;SDS011;45321;53.200;5.814;2022-11-15T10:33:34;29.27;;;23.88;;
59504;SDS011;45321;53.200;5.814;2022-11-15T10:43:42;29.25;;;22.88;;
59504;SDS011;45321;53.200;5.814;2022-11-15T10:46:19;27.95;;;21.40;;
59504;SDS011;45321;53.200;5.814;2022-11-15T10:48:46;41.30;;;22.38;;
59504;SDS011;45321;53.200;5.814;2022-11-15T10:51:26;27.70;;;19.98;;
59504;SDS011;45321;53.200;5.814;2022-11-15T10:53:57;25.77;;;20.05;;
59504;SDS011;45321;53.200;5.814;2022-11-15T10:56:25;23.45;;;19.50;;
59504;SDS011;45321;53.200;5.814;2022-11-15T10:59:01;24.55;;;19.67;;
59504;SDS011;45321;53.200;5.814;2022-11-15T11:01:27;27.15;;;18.23;;
59504;SDS011;45321;53.200;5.814;2022-11-15T11:03:58;35.90;;;18.63;;
59504;SDS011;45321;53.200;5.814;2022-11-15T11:06:25;27.83;;;18.27;;
59504;SDS011;45321;53.200;5.814;2022-11-15T11:09:04;23.88;;;18.00;;
59504;SDS011;45321;53.200;5.814;2022-11-15T11:11:52;24.38;;;18.15;;
59504;SDS011;45321;53.200;5.814;2022-11-15T11:14:22;25.20;;;18.00;;
59504;SDS011;45321;53.200;5.814;2022-11-15T11:33:27;26.13;;;15.25;;
59504;SDS011;45321;53.200;5.814;2022-11-15T11:46:51;15.32;;;12.55;;
59504;SDS011;45321;53.200;5.814;2022-11-15T11:49:29;21.25;;;12.93;;
59504;SDS011;45321;53.200;5.814;2022-11-15T11:52:18;20.05;;;13.40;;
59504;SDS011;45321;53.200;5.814;2022-11-15T12:00:46;16.02;;;11.60;;
59504;SDS011;45321;53.200;5.814;2022-11-15T12:05:50;17.10;;;11.85;;
59504;SDS011;45321;53.200;5.814;2022-11-15T12:11:13;13.75;;;11.00;;
59504;SDS011;45321;53.200;5.814;2022-11-15T12:13:44;14.93;;;10.55;;
59504;SDS011;45321;53.200;5.814;2022-11-15T12:16:18;14.20;;;10.32;;
59504;SDS011;45321;53.200;5.814;2022-11-15T12:18:52;16.67;;;10.85;;
59504;SDS011;45321;53.200;5.814;2022-11-15T12:24:34;12.60;;;9.98;;
59504;SDS011;45321;53.200;5.814;2022-11-15T12:27:53;14.48;;;10.95;;
59504;SDS011;45321;53.200;5.814;2022-11-15T12:30:37;17.50;;;10.68;;
59504;SDS011;45321;53.200;5.814;2022-11-15T12:33:28;12.00;;;9.10;;
59504;SDS011;45321;53.200;5.814;2022-11-15T12:39:02;11.88;;;8.80;;
59504;SDS011;45321;53.200;5.814;2022-11-15T12:41:35;14.00;;;8.43;;
59504;SDS011;45321;53.200;5.814;2022-11-15T12:44:03;11.13;;;7.18;;
59504;SDS011;45321;53.200;5.814;2022-11-15T12:49:10;6.00;;;3.80;;
59504;SDS011;45321;53.200;5.814;2022-11-15T13:02:28;16.92;;;6.90;;
59504;SDS011;45321;53.200;5.814;2022-11-15T13:17:42;7.50;;;3.10;;
59504;SDS011;45321;53.200;5.814;2022-11-15T13:30:40;4.18;;;3.00;;
59504;SDS011;45321;53.200;5.814;2022-11-15T13:33:16;4.35;;;2.33;;
59504;SDS011;45321;53.200;5.814;2022-11-15T13:36:00;7.63;;;3.78;;
59504;SDS011;45321;53.200;5.814;2022-11-15T13:38:29;8.02;;;4.00;;
59504;SDS011;45321;53.200;5.814;2022-11-15T13:40:57;8.80;;;4.22;;
59504;SDS011;45321;53.200;5.814;2022-11-15T13:46:07;7.90;;;3.33;;
59504;SDS011;45321;53.200;5.814;2022-11-15T13:48:38;8.45;;;3.58;;
59504;SDS011;45321;53.200;5.814;2022-11-15T13:51:32;4.00;;;3.15;;
59504;SDS011;45321;53.200;5.814;2022-11-15T13:57:21;8.50;;;3.38;;
59504;SDS011;45321;53.200;5.814;2022-11-15T13:59:56;4.63;;;3.17;;
59504;SDS011;45321;53.200;5.814;2022-11-15T14:02:27;8.05;;;3.90;;
59504;SDS011;45321;53.200;5.814;2022-11-15T14:04:58;6.15;;;3.95;;
59504;SDS011;45321;53.200;5.814;2022-11-15T14:07:28;5.90;;;3.85;;
59504;SDS011;45321;53.200;5.814;2022-11-15T14:09:54;4.53;;;3.58;;
59504;SDS011;45321;53.200;5.814;2022-11-15T14:12:53;5.30;;;4.05;;
59504;SDS011;45321;53.200;5.814;2022-11-15T14:15:34;6.88;;;3.60;;
59504;SDS011;45321;53.200;5.814;2022-11-15T14:18:06;3.83;;;3.42;;
59504;SDS011;45321;53.200;5.814;2022-11-15T14:21:16;5.03;;;3.40;;
59504;SDS011;45321;53.200;5.814;2022-11-15T14:23:41;6.13;;;3.40;;
59504;SDS011;45321;53.200;5.814;2022-11-15T14:26:11;4.07;;;2.90;;
59504;SDS011;45321;53.200;5.814;2022-11-15T14:31:52;3.53;;;3.22;;
59504;SDS011;45321;53.200;5.814;2022-11-15T14:34:19;6.32;;;3.20;;
59504;SDS011;45321;53.200;5.814;2022-11-15T14:36:47;6.75;;;3.20;;
59504;SDS011;45321;53.200;5.814;2022-11-15T14:39:13;5.18;;;2.90;;
59504;SDS011;45321;53.200;5.814;2022-11-15T14:41:38;4.65;;;2.90;;
59504;SDS011;45321;53.200;5.814;2022-11-15T14:44:05;4.95;;;3.03;;
59504;SDS011;45321;53.200;5.814;2022-11-15T14:46:31;5.72;;;3.13;;
59504;SDS011;45321;53.200;5.814;2022-11-15T14:48:57;3.50;;;2.70;;
59504;SDS011;45321;53.200;5.814;2022-11-15T14:51:23;5.18;;;2.60;;
59504;SDS011;45321;53.200;5.814;2022-11-15T14:53:49;6.63;;;2.65;;
59504;SDS011;45321;53.200;5.814;2022-11-15T14:56:16;7.82;;;3.17;;
59504;SDS011;45321;53.200;5.814;2022-11-15T14:58:41;4.72;;;2.15;;
59504;SDS011;45321;53.200;5.814;2022-11-15T15:01:16;5.28;;;2.50;;
59504;SDS011;45321;53.200;5.814;2022-11-15T15:03:43;4.00;;;2.22;;
59504;SDS011;45321;53.200;5.814;2022-11-15T15:06:09;4.57;;;1.98;;
59504;SDS011;45321;53.200;5.814;2022-11-15T15:08:35;6.28;;;2.28;;
59504;SDS011;45321;53.200;5.814;2022-11-15T15:11:00;5.07;;;2.28;;
59504;SDS011;45321;53.200;5.814;2022-11-15T15:13:26;4.03;;;2.30;;
59504;SDS011;45321;53.200;5.814;2022-11-15T15:15:53;3.53;;;2.05;;
59504;SDS011;45321;53.200;5.814;2022-11-15T15:18:19;3.00;;;2.30;;
59504;SDS011;45321;53.200;5.814;2022-11-15T15:20:45;4.45;;;2.58;;
59504;SDS011;45321;53.200;5.814;2022-11-15T15:23:19;5.63;;;2.20;;
59504;SDS011;45321;53.200;5.814;2022-11-15T15:25:46;4.22;;;2.25;;
59504;SDS011;45321;53.200;5.814;2022-11-15T15:28:13;4.80;;;2.40;;
59504;SDS011;45321;53.200;5.814;2022-11-15T15:30:40;5.13;;;2.50;;
59504;SDS011;45321;53.200;5.814;2022-11-15T15:33:06;3.75;;;1.98;;
59504;SDS011;45321;53.200;5.814;2022-11-15T15:35:32;3.28;;;1.90;;
59504;SDS011;45321;53.200;5.814;2022-11-15T15:37:59;3.75;;;2.03;;
59504;SDS011;45321;53.200;5.814;2022-11-15T15:40:27;4.88;;;2.53;;
59504;SDS011;45321;53.200;5.814;2022-11-15T15:42:54;3.65;;;2.10;;
59504;SDS011;45321;53.200;5.814;2022-11-15T15:45:20;5.22;;;2.08;;
59504;SDS011;45321;53.200;5.814;2022-11-15T15:47:46;3.35;;;2.28;;
59504;SDS011;45321;53.200;5.814;2022-11-15T15:50:25;5.28;;;2.08;;
59504;SDS011;45321;53.200;5.814;2022-11-15T15:52:54;5.03;;;2.25;;
59504;SDS011;45321;53.200;5.814;2022-11-15T15:55:21;5.38;;;1.90;;
59504;SDS011;45321;53.200;5.814;2022-11-15T15:57:47;2.65;;;1.38;;
59504;SDS011;45321;53.200;5.814;2022-11-15T16:00:13;4.03;;;1.90;;
59504;SDS011;45321;53.200;5.814;2022-11-15T16:02:40;3.35;;;1.77;;
59504;SDS011;45321;53.200;5.814;2022-11-15T16:05:06;4.60;;;1.88;;
59504;SDS011;45321;53.200;5.814;2022-11-15T16:07:32;3.83;;;1.70;;
59504;SDS011;45321;53.200;5.814;2022-11-15T16:09:59;5.07;;;1.60;;
59504;SDS011;45321;53.200;5.814;2022-11-15T16:12:24;4.13;;;2.25;;
59504;SDS011;45321;53.200;5.814;2022-11-15T16:15:00;4.55;;;1.83;;
59504;SDS011;45321;53.200;5.814;2022-11-15T16:17:28;5.13;;;2.80;;
59504;SDS011;45321;53.200;5.814;2022-11-15T16:19:57;4.47;;;2.30;;
59504;SDS011;45321;53.200;5.814;2022-11-15T16:22:22;3.53;;;1.80;;
59504;SDS011;45321;53.200;5.814;2022-11-15T16:24:48;4.72;;;2.05;;
59504;SDS011;45321;53.200;5.814;2022-11-15T16:27:18;3.97;;;2.40;;
59504;SDS011;45321;53.200;5.814;2022-11-15T16:29:45;4.97;;;2.30;;
59504;SDS011;45321;53.200;5.814;2022-11-15T16:32:11;5.13;;;2.35;;
59504;SDS011;45321;53.200;5.814;2022-11-15T16:34:37;6.05;;;3.08;;
59504;SDS011;45321;53.200;5.814;2022-11-15T16:37:03;7.65;;;3.53;;
59504;SDS011;45321;53.200;5.814;2022-11-15T16:39:29;4.22;;;3.08;;
59504;SDS011;45321;53.200;5.814;2022-11-15T16:41:59;6.20;;;3.55;;
59504;SDS011;45321;53.200;5.814;2022-11-15T16:44:25;7.53;;;3.67;;
59504;SDS011;45321;53.200;5.814;2022-11-15T16:46:53;4.70;;;3.35;;
59504;SDS011;45321;53.200;5.814;2022-11-15T16:49:19;7.45;;;4.78;;
59504;SDS011;45321;53.200;5.814;2022-11-15T16:51:46;5.53;;;4.18;;
59504;SDS011;45321;53.200;5.814;2022-11-15T16:54:13;5.30;;;4.35;;
59504;SDS011;45321;53.200;5.814;2022-11-15T16:56:39;6.20;;;4.40;;
59504;SDS011;45321;53.200;5.814;2022-11-15T16:59:05;8.45;;;4.20;;
59504;SDS011;45321;53.200;5.814;2022-11-15T17:01:32;5.13;;;3.65;;
59504;SDS011;45321;53.200;5.814;2022-11-15T17:04:11;6.28;;;4.30;;
59504;SDS011;45321;53.200;5.814;2022-11-15T17:06:38;8.50;;;4.00;;
59504;SDS011;45321;53.200;5.814;2022-11-15T17:09:05;4.60;;;3.63;;